VECC/CCU METAR and TAF weather

Enter ICAO airport designator
Station Type Date Time Source
VECC METAR 2021/04/13 23:30 UTC NOAA

VECC 132330Z 21008KT 2600 HZ FEW020 SCT100 27/25 Q1008 NOSIG


Station Type Date Time Source
VECC Decoded METAR 2021/04/13 23:30 UTC NOAA

Calcutta / Dum Dum, India (VECC) 22-39N 088-27E 6M
Apr 13, 2021 - 07:30 PM EDT / 2021.04.13 2330 UTC
Wind: from the SSW (210 degrees) at 9 MPH (8 KT):0
Visibility: 1 mile(s):0
Sky conditions: partly cloudy
Weather: haze
Temperature: 80 F (27 C)
Dew Point: 77 F (25 C)
Relative Humidity: 88%
Pressure (altimeter): 29.77 in. Hg (1008 hPa)
ob: VECC 132330Z 21008KT 2600 HZ FEW020 SCT100 27/25 Q1008 NOSIG
cycle: 23

Station Type Date Time Source
VECC TAF 2021/04/13 18:42 UTC NOAA

TAF VECC 131700Z 1318/1424 20008KT 3200 HZ FEW100
BECMG 1400/1402 2500 HZ FEW020 SCT100
BECMG 1403/1405 3500 HZ
BECMG 1422/1424 2800 HZ

Example: see airport list